createdAt,value
2023-06-30T00:00:31.588Z,56.03
2023-06-30T00:03:26.744Z,56.44
2023-06-30T00:06:00.072Z,56.54
2023-06-30T00:08:31.718Z,56.90
2023-06-30T00:11:04.370Z,56.04
2023-06-30T00:13:35.344Z,54.64
2023-06-30T00:16:07.008Z,54.64
2023-06-30T00:18:38.881Z,54.95
2023-06-30T00:21:09.442Z,54.85
2023-06-30T00:23:41.325Z,55.05
2023-06-30T00:26:13.083Z,55.26
2023-06-30T00:28:45.390Z,55.45
2023-06-30T00:31:16.414Z,55.36
2023-06-30T00:33:47.906Z,55.07
2023-06-30T00:36:19.716Z,55.15
2023-06-30T00:38:53.714Z,56.19
2023-06-30T00:41:24.904Z,57.57
2023-06-30T00:43:58.606Z,57.88
2023-06-30T00:46:30.552Z,58.24
2023-06-30T00:49:02.271Z,58.27
2023-06-30T00:51:35.418Z,57.55
2023-06-30T00:54:07.489Z,56.91
2023-06-30T00:56:39.036Z,57.10
2023-06-30T00:59:09.584Z,56.81
2023-06-30T01:01:59.257Z,57.11
2023-06-30T01:04:40.334Z,57.03
2023-06-30T01:07:19.621Z,57.28
2023-06-30T01:10:03.745Z,57.34
2023-06-30T01:12:37.127Z,57.22
2023-06-30T01:15:09.677Z,57.27
2023-06-30T01:17:55.343Z,57.18
2023-06-30T01:20:36.120Z,57.44
2023-06-30T01:23:20.230Z,58.64
2023-06-30T01:25:53.949Z,60.15
2023-06-30T01:28:25.036Z,60.81
2023-06-30T01:30:58.521Z,61.26
2023-06-30T01:33:31.043Z,61.67
2023-06-30T01:36:03.619Z,61.69
2023-06-30T01:38:35.796Z,59.95
2023-06-30T01:41:11.290Z,59.10
2023-06-30T01:43:46.099Z,59.22
2023-06-30T01:46:18.666Z,60.04
2023-06-30T01:48:50.905Z,60.50
2023-06-30T01:51:22.978Z,59.37
2023-06-30T01:53:54.400Z,59.01
2023-06-30T01:56:28.341Z,58.92
2023-06-30T01:59:02.386Z,59.03
2023-06-30T02:01:34.596Z,59.26
2023-06-30T02:04:06.481Z,59.31
2023-06-30T02:06:37.967Z,59.23
2023-06-30T02:09:10.111Z,59.70
2023-06-30T02:11:43.890Z,60.55
2023-06-30T02:14:14.765Z,60.86
2023-06-30T02:16:46.089Z,60.93
2023-06-30T02:19:18.720Z,61.21
2023-06-30T02:21:51.539Z,61.62
2023-06-30T02:24:23.721Z,62.53
2023-06-30T02:27:01.397Z,63.14
2023-06-30T02:29:34.907Z,62.88
2023-06-30T02:32:07.796Z,62.78
2023-06-30T02:34:40.937Z,62.58
2023-06-30T02:37:14.468Z,62.28
2023-06-30T02:39:48.166Z,61.88
2023-06-30T02:42:19.530Z,60.91
2023-06-30T02:44:51.357Z,59.79
2023-06-30T02:47:22.452Z,59.90
2023-06-30T02:49:54.764Z,60.69
2023-06-30T02:52:26.643Z,61.89
2023-06-30T02:55:00.521Z,62.98
2023-06-30T02:57:31.868Z,63.33
2023-06-30T03:00:05.359Z,63.37
2023-06-30T03:02:38.270Z,63.23
2023-06-30T03:05:11.329Z,60.78
2023-06-30T03:07:44.020Z,60.08
2023-06-30T03:10:15.473Z,60.46
2023-06-30T03:12:47.041Z,61.78
2023-06-30T03:15:19.401Z,60.88
2023-06-30T03:17:51.745Z,60.46
2023-06-30T03:20:23.855Z,60.46
2023-06-30T03:22:58.345Z,60.42
2023-06-30T03:25:30.969Z,60.82
2023-06-30T03:28:03.411Z,60.85
2023-06-30T03:30:36.073Z,60.58
2023-06-30T03:33:09.867Z,60.54
2023-06-30T03:35:40.912Z,60.49
2023-06-30T03:38:13.931Z,60.74
2023-06-30T03:40:46.184Z,60.62
2023-06-30T03:43:18.772Z,60.57
2023-06-30T03:45:53.076Z,60.42
2023-06-30T03:48:26.564Z,60.53
2023-06-30T03:51:00.277Z,61.15
2023-06-30T03:53:33.237Z,61.29
2023-06-30T03:56:05.400Z,60.90
2023-06-30T03:58:36.784Z,60.67
2023-06-30T04:01:10.058Z,60.28
2023-06-30T04:03:41.735Z,60.19
2023-06-30T04:06:12.877Z,59.95
2023-06-30T04:08:44.338Z,60.23
2023-06-30T04:11:16.522Z,60.59
2023-06-30T04:13:49.921Z,60.79
2023-06-30T04:16:21.524Z,60.59
2023-06-30T04:18:55.382Z,60.13
2023-06-30T04:21:29.258Z,60.12
2023-06-30T04:24:00.592Z,60.48
2023-06-30T04:26:33.670Z,60.52
2023-06-30T04:29:04.460Z,60.01
2023-06-30T04:31:34.053Z,59.67
2023-06-30T04:34:04.261Z,59.76
2023-06-30T04:36:34.190Z,59.71
2023-06-30T04:39:04.388Z,59.98
2023-06-30T04:41:34.549Z,59.68
2023-06-30T04:44:04.078Z,59.54
2023-06-30T04:46:33.967Z,59.55
2023-06-30T04:49:06.404Z,59.35
2023-06-30T04:51:37.324Z,59.19
2023-06-30T04:54:06.796Z,59.41
2023-06-30T04:56:36.112Z,59.07
2023-06-30T04:59:06.769Z,58.73
2023-06-30T05:01:36.303Z,58.81
2023-06-30T05:04:06.422Z,59.00
2023-06-30T05:06:36.399Z,58.89
2023-06-30T05:09:06.704Z,58.50
2023-06-30T05:11:36.477Z,57.78
2023-06-30T05:14:06.970Z,57.54
2023-06-30T05:16:36.602Z,57.43
2023-06-30T05:19:06.241Z,57.57
2023-06-30T05:21:38.274Z,58.59
2023-06-30T05:24:09.578Z,58.30
2023-06-30T05:26:41.432Z,58.35
2023-06-30T05:29:11.411Z,58.67
2023-06-30T05:31:40.609Z,58.57
2023-06-30T05:34:11.856Z,58.90
2023-06-30T05:36:46.995Z,58.57
2023-06-30T05:39:18.112Z,58.33
2023-06-30T05:41:48.232Z,57.60
2023-06-30T05:44:18.541Z,57.27
2023-06-30T05:46:50.018Z,56.91
2023-06-30T05:49:20.650Z,56.59
2023-06-30T05:51:51.104Z,56.37
2023-06-30T05:54:20.723Z,55.86
2023-06-30T05:56:50.368Z,55.61
2023-06-30T05:59:20.337Z,55.48
2023-06-30T06:01:50.553Z,55.10
2023-06-30T06:04:21.575Z,55.21
2023-06-30T06:06:51.175Z,55.41
2023-06-30T06:09:20.722Z,55.22
2023-06-30T06:11:50.716Z,54.74
2023-06-30T06:14:21.617Z,54.55
2023-06-30T06:16:52.259Z,54.56
2023-06-30T06:19:25.508Z,54.61
2023-06-30T06:21:58.286Z,54.51
2023-06-30T06:24:29.007Z,54.35
2023-06-30T06:26:59.745Z,54.14
2023-06-30T06:29:29.588Z,54.39
2023-06-30T06:32:00.518Z,54.23
2023-06-30T06:34:30.611Z,54.29
2023-06-30T06:37:00.025Z,54.04
2023-06-30T06:39:30.114Z,53.68
2023-06-30T06:42:00.281Z,53.46
2023-06-30T06:44:30.335Z,53.21
2023-06-30T06:47:37.966Z,52.75
2023-06-30T06:50:08.528Z,52.41
2023-06-30T06:52:40.264Z,51.93
2023-06-30T06:55:10.664Z,51.44
2023-06-30T06:57:40.053Z,50.83
2023-06-30T07:00:10.567Z,50.89
2023-06-30T07:02:41.946Z,50.67
2023-06-30T07:05:13.844Z,50.64
2023-06-30T07:07:44.323Z,50.23
2023-06-30T07:10:14.847Z,49.91
2023-06-30T07:12:44.394Z,49.38
2023-06-30T07:15:13.727Z,49.18
2023-06-30T07:17:43.447Z,48.29
2023-06-30T07:20:14.535Z,48.33
2023-06-30T07:22:44.037Z,47.72
2023-06-30T07:25:13.882Z,47.29
2023-06-30T07:27:54.824Z,47.33
2023-06-30T07:30:26.988Z,45.84
2023-06-30T07:32:57.245Z,45.41
2023-06-30T07:35:28.092Z,45.09
2023-06-30T07:37:58.969Z,44.58
2023-06-30T07:40:38.447Z,43.82
2023-06-30T07:43:16.311Z,43.18
2023-06-30T07:45:46.322Z,42.37
2023-06-30T07:48:16.155Z,41.71
2023-06-30T07:50:55.419Z,41.34
2023-06-30T07:53:36.125Z,40.90
2023-06-30T07:56:06.674Z,40.17
2023-06-30T07:58:36.908Z,40.07
2023-06-30T08:01:06.600Z,39.46
2023-06-30T08:03:36.813Z,39.56
2023-06-30T08:06:07.243Z,39.26
2023-06-30T08:08:37.587Z,38.92
2023-06-30T08:11:08.168Z,38.91
2023-06-30T08:13:40.129Z,38.63
2023-06-30T08:16:11.378Z,38.49
2023-06-30T08:18:52.280Z,37.05
2023-06-30T08:21:23.648Z,37.83
2023-06-30T08:23:53.629Z,37.84
2023-06-30T08:26:23.425Z,37.61
2023-06-30T08:28:53.348Z,37.68
2023-06-30T08:31:25.383Z,37.77
2023-06-30T08:33:55.941Z,37.69
2023-06-30T08:36:26.573Z,37.54
2023-06-30T08:38:56.792Z,37.16
2023-06-30T08:41:27.383Z,36.86
2023-06-30T08:43:58.829Z,36.98
2023-06-30T08:46:30.196Z,37.22
2023-06-30T08:48:59.949Z,36.76
2023-06-30T08:51:30.217Z,35.46
2023-06-30T08:54:00.521Z,35.67
2023-06-30T08:56:31.930Z,35.82
2023-06-30T08:59:01.992Z,35.84
2023-06-30T09:01:32.786Z,36.18
2023-06-30T09:04:03.980Z,36.55
2023-06-30T09:06:39.819Z,36.75
2023-06-30T09:09:13.598Z,36.69
2023-06-30T09:11:42.754Z,35.74
2023-06-30T09:14:13.189Z,35.04
2023-06-30T09:16:43.081Z,34.29
2023-06-30T09:19:14.453Z,33.91
2023-06-30T09:21:44.039Z,33.62
2023-06-30T09:24:13.988Z,33.29
2023-06-30T09:26:43.159Z,33.37
2023-06-30T09:29:14.844Z,32.92
2023-06-30T09:31:44.420Z,32.48
2023-06-30T09:34:15.279Z,32.14
2023-06-30T09:36:49.221Z,31.87
2023-06-30T09:39:19.526Z,31.83
2023-06-30T09:41:50.034Z,31.82
2023-06-30T09:44:23.692Z,31.13
2023-06-30T09:46:56.359Z,31.13
2023-06-30T09:49:34.279Z,31.21
2023-06-30T09:52:05.478Z,31.31
2023-06-30T09:54:44.612Z,31.51
2023-06-30T09:57:14.445Z,32.45
2023-06-30T09:59:47.484Z,32.88
2023-06-30T10:02:18.184Z,32.62
2023-06-30T10:04:48.142Z,32.02
2023-06-30T10:07:18.125Z,31.50
2023-06-30T10:09:49.894Z,31.08
2023-06-30T10:12:20.908Z,31.12
2023-06-30T10:14:53.067Z,31.75
2023-06-30T10:17:23.630Z,32.76
2023-06-30T10:19:55.658Z,33.59
2023-06-30T10:22:25.537Z,34.71
2023-06-30T10:24:57.282Z,34.87
2023-06-30T10:27:28.204Z,34.46
2023-06-30T10:29:59.005Z,34.19
2023-06-30T10:32:30.069Z,33.51
2023-06-30T10:35:01.802Z,33.06
2023-06-30T10:37:31.967Z,32.14
2023-06-30T10:40:03.449Z,31.63
2023-06-30T10:42:44.193Z,30.94
2023-06-30T10:45:14.180Z,30.79
2023-06-30T10:47:48.043Z,30.49
2023-06-30T10:50:19.184Z,30.56
2023-06-30T10:52:56.546Z,30.94
2023-06-30T10:55:31.135Z,30.67
2023-06-30T10:58:05.661Z,29.98
2023-06-30T11:00:37.915Z,29.82
2023-06-30T11:03:08.264Z,29.43
2023-06-30T11:05:38.572Z,29.08
2023-06-30T11:08:11.875Z,28.92
2023-06-30T11:10:49.490Z,28.84
2023-06-30T11:13:38.692Z,28.70
2023-06-30T11:16:10.374Z,28.78
2023-06-30T11:18:40.961Z,27.96
2023-06-30T11:21:10.707Z,28.14
2023-06-30T11:23:41.746Z,28.19
2023-06-30T11:26:15.572Z,28.49
2023-06-30T11:28:50.894Z,28.78
2023-06-30T11:31:21.162Z,28.84
2023-06-30T11:33:51.551Z,28.30
2023-06-30T11:36:22.525Z,28.29
2023-06-30T11:38:53.207Z,28.25
2023-06-30T11:41:25.725Z,28.12
2023-06-30T11:44:00.113Z,28.07
2023-06-30T11:46:38.207Z,28.77
2023-06-30T11:49:11.323Z,29.14
2023-06-30T11:51:42.489Z,29.23
2023-06-30T11:54:16.041Z,29.06
2023-06-30T11:56:46.011Z,28.83
2023-06-30T11:59:15.730Z,28.73
2023-06-30T12:01:47.654Z,29.48
2023-06-30T12:04:18.120Z,30.20
2023-06-30T12:06:48.711Z,31.15
2023-06-30T12:09:18.866Z,32.44
2023-06-30T12:11:52.444Z,33.15
2023-06-30T12:14:28.432Z,34.30
2023-06-30T12:16:59.837Z,34.80
2023-06-30T12:19:30.236Z,35.03
2023-06-30T12:22:08.704Z,36.28
2023-06-30T12:24:40.568Z,37.20
2023-06-30T12:27:11.360Z,37.22
2023-06-30T12:29:48.281Z,37.70
2023-06-30T12:32:19.572Z,38.21
2023-06-30T12:35:04.123Z,39.12
2023-06-30T12:37:37.692Z,40.03
2023-06-30T12:40:10.730Z,41.61
2023-06-30T12:42:46.585Z,42.09
2023-06-30T12:45:17.660Z,43.40
2023-06-30T12:47:47.721Z,43.67
2023-06-30T12:50:18.413Z,43.81
2023-06-30T12:52:50.009Z,43.15
2023-06-30T12:55:23.858Z,42.26
2023-06-30T12:57:54.039Z,42.14
2023-06-30T13:00:24.315Z,41.44
2023-06-30T13:02:56.453Z,40.49
2023-06-30T13:05:26.175Z,39.74
2023-06-30T13:07:58.367Z,38.86
2023-06-30T13:10:29.245Z,37.89
2023-06-30T13:12:59.964Z,37.73
2023-06-30T13:15:34.131Z,37.51
2023-06-30T13:18:03.416Z,36.93
2023-06-30T13:20:34.000Z,36.16
2023-06-30T13:23:14.555Z,35.15
2023-06-30T13:25:53.415Z,34.77
2023-06-30T13:28:24.712Z,34.60
2023-06-30T13:30:55.612Z,34.16
2023-06-30T13:33:27.459Z,33.65
2023-06-30T13:35:57.610Z,33.95
2023-06-30T13:38:27.624Z,33.55
2023-06-30T13:40:57.547Z,33.35
2023-06-30T13:43:29.682Z,33.11
2023-06-30T13:46:02.535Z,32.42
2023-06-30T13:48:34.717Z,32.76
2023-06-30T13:51:06.284Z,32.65
2023-06-30T13:53:38.131Z,32.36
2023-06-30T13:56:09.487Z,32.16
2023-06-30T13:58:41.951Z,32.15
2023-06-30T14:01:16.508Z,32.31
2023-06-30T14:03:52.299Z,32.61
2023-06-30T14:06:22.146Z,32.33
2023-06-30T14:08:51.936Z,31.91
2023-06-30T14:11:22.667Z,31.92
2023-06-30T14:13:52.035Z,31.69
2023-06-30T14:16:22.307Z,31.44
2023-06-30T14:18:52.787Z,31.51
2023-06-30T14:21:22.833Z,31.49
2023-06-30T14:23:53.193Z,31.71
2023-06-30T14:26:23.744Z,31.96
2023-06-30T14:28:56.994Z,32.03
2023-06-30T14:31:27.052Z,31.93
2023-06-30T14:33:56.598Z,32.42
2023-06-30T14:36:27.764Z,32.15
2023-06-30T14:38:57.500Z,31.85
2023-06-30T14:41:27.538Z,31.81
2023-06-30T14:43:59.452Z,32.12
2023-06-30T14:46:31.539Z,32.25
2023-06-30T14:49:01.540Z,32.17
2023-06-30T14:51:30.815Z,32.19
2023-06-30T14:54:00.967Z,32.18
2023-06-30T14:56:31.323Z,32.22
2023-06-30T14:59:00.723Z,32.36
2023-06-30T15:01:30.290Z,32.39
2023-06-30T15:04:00.832Z,32.56
2023-06-30T15:06:30.797Z,33.09
2023-06-30T15:08:59.865Z,32.93
2023-06-30T15:11:29.956Z,33.31
2023-06-30T15:14:00.059Z,33.80
2023-06-30T15:16:29.424Z,33.67
2023-06-30T15:18:59.443Z,33.94
2023-06-30T15:21:29.118Z,34.20
2023-06-30T15:23:58.471Z,34.33
2023-06-30T15:26:28.225Z,34.98
2023-06-30T15:28:58.614Z,35.86
2023-06-30T15:34:03.618Z,36.31
2023-06-30T15:36:33.493Z,36.47
2023-06-30T15:39:05.089Z,36.40
2023-06-30T15:41:34.573Z,35.95
2023-06-30T15:44:05.536Z,36.39
2023-06-30T15:46:36.250Z,36.58
2023-06-30T15:49:06.764Z,36.96
2023-06-30T15:51:36.380Z,37.42
2023-06-30T15:54:06.543Z,37.21
2023-06-30T15:56:36.380Z,37.74
2023-06-30T15:59:05.954Z,38.40
2023-06-30T16:01:36.044Z,38.72
2023-06-30T16:04:06.314Z,38.90
2023-06-30T16:06:36.350Z,39.31
2023-06-30T16:09:06.344Z,39.52
2023-06-30T16:11:36.924Z,39.82
2023-06-30T16:14:07.292Z,39.89
2023-06-30T16:16:37.582Z,40.14
2023-06-30T16:19:07.469Z,40.54
2023-06-30T16:21:40.663Z,40.95
2023-06-30T16:24:11.285Z,41.69
2023-06-30T16:26:42.039Z,41.55
2023-06-30T16:29:13.942Z,41.57
2023-06-30T16:31:44.975Z,41.92
2023-06-30T16:34:15.389Z,42.16
2023-06-30T16:36:48.073Z,42.64
2023-06-30T16:39:17.619Z,42.86
2023-06-30T16:41:47.902Z,42.98
2023-06-30T16:44:19.245Z,43.11
2023-06-30T16:46:49.383Z,43.39
2023-06-30T16:49:21.168Z,43.37
2023-06-30T16:51:52.831Z,43.63
2023-06-30T16:54:22.363Z,44.08
2023-06-30T16:56:52.474Z,44.19
2023-06-30T16:59:22.578Z,44.33
2023-06-30T17:01:56.147Z,44.69
2023-06-30T17:04:26.127Z,45.09
2023-06-30T17:06:56.270Z,45.48
2023-06-30T17:09:26.573Z,45.60
2023-06-30T17:11:56.617Z,45.62
2023-06-30T17:14:26.489Z,45.99
2023-06-30T17:16:56.534Z,46.37
2023-06-30T17:19:29.323Z,46.76
2023-06-30T17:21:59.856Z,46.74
2023-06-30T17:24:30.279Z,46.53
2023-06-30T17:27:02.306Z,47.08
2023-06-30T17:29:32.208Z,47.80
2023-06-30T17:32:02.785Z,48.30
2023-06-30T17:34:32.981Z,48.63
2023-06-30T17:37:12.387Z,49.24
2023-06-30T17:39:42.656Z,49.72
2023-06-30T17:42:13.370Z,50.11
2023-06-30T17:44:45.375Z,50.72
2023-06-30T17:47:15.437Z,51.27
2023-06-30T17:49:48.053Z,51.58
2023-06-30T17:52:18.114Z,51.91
2023-06-30T17:54:47.500Z,52.56
2023-06-30T17:57:17.108Z,53.00
2023-06-30T17:59:46.769Z,53.11
2023-06-30T18:02:16.942Z,53.22
2023-06-30T18:04:46.641Z,53.40
2023-06-30T18:07:15.947Z,53.69
2023-06-30T18:09:46.180Z,53.98
2023-06-30T18:12:15.664Z,54.27
2023-06-30T18:14:45.942Z,53.88
2023-06-30T18:17:16.692Z,53.81
2023-06-30T18:19:46.940Z,53.97
2023-06-30T18:22:16.270Z,53.97
2023-06-30T18:24:45.559Z,54.32
2023-06-30T18:27:15.033Z,54.35
2023-06-30T18:29:44.907Z,53.95
2023-06-30T18:32:14.614Z,54.04
2023-06-30T18:34:46.297Z,54.22
2023-06-30T18:37:16.150Z,54.17
2023-06-30T18:39:45.456Z,54.17
2023-06-30T18:42:15.475Z,54.10
2023-06-30T18:44:45.230Z,54.26
2023-06-30T18:47:15.546Z,54.09
2023-06-30T18:49:45.744Z,53.87
2023-06-30T18:52:16.421Z,54.17
2023-06-30T18:54:46.665Z,54.12
2023-06-30T18:57:16.395Z,54.52
2023-06-30T18:59:46.581Z,54.48
2023-06-30T19:02:16.417Z,54.48
2023-06-30T19:04:47.441Z,54.74
2023-06-30T19:07:17.191Z,54.49
2023-06-30T19:09:47.370Z,54.45
2023-06-30T19:12:17.179Z,54.52
2023-06-30T19:14:47.047Z,54.89
2023-06-30T19:17:17.075Z,54.83
2023-06-30T19:19:46.325Z,55.03
2023-06-30T19:22:16.232Z,54.54
2023-06-30T19:24:46.059Z,54.01
2023-06-30T19:27:17.665Z,53.45
2023-06-30T19:29:49.519Z,53.12
2023-06-30T19:32:19.718Z,53.32
2023-06-30T19:34:50.202Z,52.83
2023-06-30T19:37:20.380Z,52.64
2023-06-30T19:39:50.556Z,51.92
2023-06-30T19:42:21.525Z,51.92
2023-06-30T19:44:51.120Z,51.48
2023-06-30T19:47:23.030Z,50.49
2023-06-30T19:49:54.321Z,50.03
2023-06-30T19:52:24.689Z,49.67
2023-06-30T19:54:56.132Z,48.97
2023-06-30T19:57:27.190Z,48.93
2023-06-30T19:59:58.060Z,48.77
2023-06-30T20:02:29.015Z,48.72
2023-06-30T20:04:59.832Z,48.61
2023-06-30T20:07:30.821Z,48.08
2023-06-30T20:10:01.942Z,48.06
2023-06-30T20:12:34.424Z,48.22
2023-06-30T20:15:08.480Z,48.33
2023-06-30T20:17:39.775Z,48.54
2023-06-30T20:20:14.833Z,48.61
2023-06-30T20:22:46.704Z,48.42
2023-06-30T20:25:20.167Z,48.41
2023-06-30T20:27:53.485Z,48.05
2023-06-30T20:30:25.003Z,48.02
2023-06-30T20:32:55.492Z,48.27
2023-06-30T20:35:25.470Z,48.68
2023-06-30T20:37:57.062Z,49.88
2023-06-30T20:40:27.651Z,49.56
2023-06-30T20:42:59.233Z,48.81
2023-06-30T20:45:32.589Z,48.79
2023-06-30T20:48:04.053Z,49.35
2023-06-30T20:50:35.462Z,49.79
2023-06-30T20:53:05.656Z,51.67
2023-06-30T20:55:36.012Z,52.47
2023-06-30T20:58:06.505Z,52.97
2023-06-30T21:00:36.752Z,53.33
2023-06-30T21:03:09.311Z,52.13
2023-06-30T21:05:41.339Z,53.17
2023-06-30T21:08:12.742Z,54.34
2023-06-30T21:10:45.877Z,56.16
2023-06-30T21:13:17.111Z,56.78
2023-06-30T21:15:48.870Z,56.72
2023-06-30T21:18:24.083Z,57.44
2023-06-30T21:20:58.382Z,57.18
2023-06-30T21:23:32.843Z,57.49
2023-06-30T21:26:25.871Z,58.00
2023-06-30T21:28:56.689Z,59.11
2023-06-30T21:31:26.039Z,60.06
2023-06-30T21:33:55.785Z,60.64
2023-06-30T21:36:24.894Z,60.59
2023-06-30T21:38:54.474Z,60.66
2023-06-30T21:41:24.479Z,60.71
2023-06-30T21:43:54.597Z,59.09
2023-06-30T21:46:26.327Z,59.20
2023-06-30T21:48:58.456Z,59.80
2023-06-30T21:51:30.819Z,60.02
2023-06-30T21:54:06.336Z,59.67
2023-06-30T21:56:37.210Z,59.22
2023-06-30T21:59:08.715Z,59.14
2023-06-30T22:01:42.182Z,58.98
2023-06-30T22:04:15.350Z,59.33
2023-06-30T22:06:49.089Z,59.72
2023-06-30T22:09:19.608Z,60.95
2023-06-30T22:11:50.599Z,61.35
2023-06-30T22:14:21.520Z,61.69
2023-06-30T22:16:55.339Z,61.70
2023-06-30T22:19:28.422Z,60.79
2023-06-30T22:22:00.635Z,60.59
2023-06-30T22:24:30.603Z,60.71
2023-06-30T22:27:02.261Z,60.85
2023-06-30T22:29:34.074Z,60.54
2023-06-30T22:32:05.831Z,60.74
2023-06-30T22:34:36.824Z,60.75
2023-06-30T22:37:06.974Z,60.57
2023-06-30T22:39:36.055Z,60.34
2023-06-30T22:42:06.282Z,60.08
2023-06-30T22:44:35.358Z,60.57
2023-06-30T22:47:04.937Z,61.03
2023-06-30T22:49:34.199Z,60.94
2023-06-30T22:52:04.309Z,61.30
2023-06-30T22:54:35.863Z,62.17
2023-06-30T22:57:05.919Z,62.84
2023-06-30T22:59:35.354Z,63.86
2023-06-30T23:02:05.352Z,64.61
2023-06-30T23:04:34.971Z,64.66
2023-06-30T23:07:04.802Z,66.06
2023-06-30T23:09:33.952Z,65.94
2023-06-30T23:12:03.579Z,65.76
2023-06-30T23:14:32.832Z,65.83
2023-06-30T23:17:03.917Z,65.62
2023-06-30T23:19:36.218Z,66.05
2023-06-30T23:22:09.921Z,65.94
2023-06-30T23:24:40.287Z,65.87
2023-06-30T23:27:09.970Z,65.03
2023-06-30T23:29:39.557Z,63.27
2023-06-30T23:32:11.443Z,57.82
2023-06-30T23:34:41.631Z,60.97
2023-06-30T23:37:19.043Z,62.76
2023-06-30T23:39:53.014Z,61.76
2023-06-30T23:42:22.744Z,60.09
2023-06-30T23:44:52.891Z,60.56
2023-06-30T23:47:22.448Z,61.59
2023-06-30T23:49:51.669Z,60.58
2023-06-30T23:52:21.040Z,60.96
2023-06-30T23:54:50.694Z,61.69
2023-06-30T23:57:21.702Z,62.18
2023-06-30T23:59:52.282Z,62.30
